sensor_id;sensor_type;location;lat;lon;timestamp;pressure;altitude;pressure_sealevel;temperature;humidity
21821;BME280;11073;48.586;12.066;2023-02-23T00:01:35;96036.53;;;9.31;65.13
21821;BME280;11073;48.586;12.066;2023-02-23T00:04:24;96039.59;;;9.34;65.15
21821;BME280;11073;48.586;12.066;2023-02-23T00:07:13;96041.69;;;9.32;65.30
21821;BME280;11073;48.586;12.066;2023-02-23T00:10:06;96042.44;;;9.28;65.37
21821;BME280;11073;48.586;12.066;2023-02-23T00:12:58;96036.66;;;9.24;65.47
21821;BME280;11073;48.586;12.066;2023-02-23T00:15:48;96038.31;;;9.25;65.65
21821;BME280;11073;48.586;12.066;2023-02-23T00:18:43;96034.03;;;9.13;65.52
21821;BME280;11073;48.586;12.066;2023-02-23T00:21:35;96041.44;;;9.05;65.94
21821;BME280;11073;48.586;12.066;2023-02-23T00:24:24;96040.59;;;9.05;65.93
21821;BME280;11073;48.586;12.066;2023-02-23T00:27:14;96034.50;;;8.98;66.34
21821;BME280;11073;48.586;12.066;2023-02-23T00:30:09;96041.44;;;9.05;66.43
21821;BME280;11073;48.586;12.066;2023-02-23T00:32:58;96043.28;;;9.05;66.44
21821;BME280;11073;48.586;12.066;2023-02-23T00:35:48;96047.16;;;9.09;66.69
21821;BME280;11073;48.586;12.066;2023-02-23T00:38:38;96047.66;;;9.06;66.74
21821;BME280;11073;48.586;12.066;2023-02-23T00:41:28;96041.31;;;9.00;66.68
21821;BME280;11073;48.586;12.066;2023-02-23T00:44:17;96044.13;;;9.05;66.74
21821;BME280;11073;48.586;12.066;2023-02-23T00:47:07;96046.09;;;9.10;66.54
21821;BME280;11073;48.586;12.066;2023-02-23T00:49:57;96051.16;;;9.06;66.76
21821;BME280;11073;48.586;12.066;2023-02-23T00:52:47;96059.06;;;8.73;66.40
21821;BME280;11073;48.586;12.066;2023-02-23T00:55:39;96052.28;;;8.59;66.73
21821;BME280;11073;48.586;12.066;2023-02-23T00:58:29;96055.81;;;8.47;67.05
21821;BME280;11073;48.586;12.066;2023-02-23T01:01:19;96048.28;;;8.49;67.57
21821;BME280;11073;48.586;12.066;2023-02-23T01:04:11;96050.88;;;8.56;67.48
21821;BME280;11073;48.586;12.066;2023-02-23T01:07:00;96050.97;;;8.61;67.42
21821;BME280;11073;48.586;12.066;2023-02-23T01:09:54;96047.00;;;8.64;67.54
21821;BME280;11073;48.586;12.066;2023-02-23T01:12:45;96040.88;;;8.68;67.48
21821;BME280;11073;48.586;12.066;2023-02-23T01:15:40;96035.28;;;8.70;67.51
21821;BME280;11073;48.586;12.066;2023-02-23T01:18:30;96047.59;;;8.77;67.62
21821;BME280;11073;48.586;12.066;2023-02-23T01:21:22;96041.84;;;8.62;67.13
21821;BME280;11073;48.586;12.066;2023-02-23T01:24:13;96040.28;;;8.54;67.36
21821;BME280;11073;48.586;12.066;2023-02-23T01:27:03;96034.44;;;8.46;67.45
21821;BME280;11073;48.586;12.066;2023-02-23T01:29:53;96035.16;;;8.53;67.60
21821;BME280;11073;48.586;12.066;2023-02-23T01:32:42;96030.09;;;8.45;67.48
21821;BME280;11073;48.586;12.066;2023-02-23T01:35:32;96015.66;;;8.27;67.69
21821;BME280;11073;48.586;12.066;2023-02-23T01:38:21;96036.22;;;8.40;67.80
21821;BME280;11073;48.586;12.066;2023-02-23T01:41:10;96032.47;;;8.41;67.86
21821;BME280;11073;48.586;12.066;2023-02-23T01:44:02;96030.22;;;8.38;67.75
21821;BME280;11073;48.586;12.066;2023-02-23T01:46:54;96038.91;;;8.40;67.83
21821;BME280;11073;48.586;12.066;2023-02-23T01:49:45;96041.09;;;8.32;67.59
21821;BME280;11073;48.586;12.066;2023-02-23T01:52:35;96036.41;;;8.27;67.81
21821;BME280;11073;48.586;12.066;2023-02-23T01:55:26;96040.63;;;8.23;67.79
21821;BME280;11073;48.586;12.066;2023-02-23T01:58:19;96035.72;;;8.20;68.14
21821;BME280;11073;48.586;12.066;2023-02-23T02:01:11;96036.63;;;8.25;68.26
21821;BME280;11073;48.586;12.066;2023-02-23T02:04:02;96033.94;;;8.25;68.31
21821;BME280;11073;48.586;12.066;2023-02-23T02:06:53;96032.28;;;8.24;68.56
21821;BME280;11073;48.586;12.066;2023-02-23T02:09:45;96031.59;;;8.29;68.56
21821;BME280;11073;48.586;12.066;2023-02-23T02:12:56;96028.22;;;8.34;68.47
21821;BME280;11073;48.586;12.066;2023-02-23T02:16:16;96022.44;;;8.30;68.23
21821;BME280;11073;48.586;12.066;2023-02-23T02:19:35;96032.63;;;8.16;68.19
21821;BME280;11073;48.586;12.066;2023-02-23T02:22:45;96030.88;;;8.10;68.21
21821;BME280;11073;48.586;12.066;2023-02-23T02:25:46;96025.59;;;8.15;68.33
21821;BME280;11073;48.586;12.066;2023-02-23T02:32:38;96026.44;;;8.16;68.42
21821;BME280;11073;48.586;12.066;2023-02-23T02:36:02;96024.06;;;8.08;68.27
21821;BME280;11073;48.586;12.066;2023-02-23T02:39:00;96037.28;;;7.86;68.04
21821;BME280;11073;48.586;12.066;2023-02-23T02:42:06;96029.53;;;7.78;68.33
21821;BME280;11073;48.586;12.066;2023-02-23T02:45:00;96023.56;;;7.76;68.74
21821;BME280;11073;48.586;12.066;2023-02-23T02:47:57;96036.47;;;7.85;68.52
21821;BME280;11073;48.586;12.066;2023-02-23T02:50:53;96033.78;;;7.85;68.54
21821;BME280;11073;48.586;12.066;2023-02-23T02:53:48;96038.56;;;7.83;68.74
21821;BME280;11073;48.586;12.066;2023-02-23T02:56:42;96035.03;;;7.71;68.42
21821;BME280;11073;48.586;12.066;2023-02-23T02:59:41;96034.16;;;7.59;68.50
21821;BME280;11073;48.586;12.066;2023-02-23T03:02:49;96037.19;;;7.51;68.59
21821;BME280;11073;48.586;12.066;2023-02-23T03:05:55;96041.97;;;7.49;68.97
21821;BME280;11073;48.586;12.066;2023-02-23T03:09:09;96032.50;;;7.46;69.19
21821;BME280;11073;48.586;12.066;2023-02-23T03:12:26;96039.78;;;7.57;69.22
21821;BME280;11073;48.586;12.066;2023-02-23T03:15:40;96046.22;;;7.56;69.30
21821;BME280;11073;48.586;12.066;2023-02-23T03:19:06;96051.47;;;7.51;69.31
21821;BME280;11073;48.586;12.066;2023-02-23T03:22:17;96052.84;;;7.42;69.45
21821;BME280;11073;48.586;12.066;2023-02-23T03:25:28;96053.41;;;7.32;69.53
21821;BME280;11073;48.586;12.066;2023-02-23T03:28:45;96053.31;;;7.39;69.77
21821;BME280;11073;48.586;12.066;2023-02-23T03:32:02;96051.19;;;7.41;69.88
21821;BME280;11073;48.586;12.066;2023-02-23T03:35:20;96058.22;;;7.42;70.09
21821;BME280;11073;48.586;12.066;2023-02-23T03:38:34;96062.31;;;7.44;70.07
21821;BME280;11073;48.586;12.066;2023-02-23T03:41:43;96060.84;;;7.49;70.03
21821;BME280;11073;48.586;12.066;2023-02-23T03:44:53;96058.88;;;7.56;69.91
21821;BME280;11073;48.586;12.066;2023-02-23T03:48:02;96064.16;;;7.62;69.82
21821;BME280;11073;48.586;12.066;2023-02-23T03:51:11;96054.22;;;7.63;69.99
21821;BME280;11073;48.586;12.066;2023-02-23T03:54:24;96052.56;;;7.62;69.73
21821;BME280;11073;48.586;12.066;2023-02-23T03:57:34;96062.56;;;7.73;69.90
21821;BME280;11073;48.586;12.066;2023-02-23T04:00:45;96050.81;;;7.67;69.74
21821;BME280;11073;48.586;12.066;2023-02-23T04:03:55;96037.09;;;7.57;69.63
21821;BME280;11073;48.586;12.066;2023-02-23T04:07:05;96059.63;;;7.74;69.79
21821;BME280;11073;48.586;12.066;2023-02-23T04:10:15;96052.38;;;7.75;69.69
21821;BME280;11073;48.586;12.066;2023-02-23T04:13:23;96054.38;;;7.80;69.54
21821;BME280;11073;48.586;12.066;2023-02-23T04:16:15;96067.59;;;7.81;69.54
21821;BME280;11073;48.586;12.066;2023-02-23T04:19:04;96053.56;;;7.79;69.27
21821;BME280;11073;48.586;12.066;2023-02-23T04:21:54;96060.69;;;7.73;69.26
21821;BME280;11073;48.586;12.066;2023-02-23T04:24:44;96043.06;;;7.59;69.27
21821;BME280;11073;48.586;12.066;2023-02-23T04:27:34;96052.38;;;7.75;69.55
21821;BME280;11073;48.586;12.066;2023-02-23T04:30:23;96062.22;;;7.81;69.28
21821;BME280;11073;48.586;12.066;2023-02-23T04:33:16;96061.53;;;7.86;69.43
21821;BME280;11073;48.586;12.066;2023-02-23T04:36:05;96051.34;;;7.88;69.20
21821;BME280;11073;48.586;12.066;2023-02-23T04:38:56;96058.97;;;7.91;69.20
21821;BME280;11073;48.586;12.066;2023-02-23T04:41:44;96059.56;;;7.93;69.13
21821;BME280;11073;48.586;12.066;2023-02-23T04:44:35;96054.03;;;7.88;68.91
21821;BME280;11073;48.586;12.066;2023-02-23T04:47:24;96059.84;;;7.73;68.79
21821;BME280;11073;48.586;12.066;2023-02-23T04:50:15;96067.78;;;7.56;68.46
21821;BME280;11073;48.586;12.066;2023-02-23T04:53:05;96064.81;;;7.46;68.76
21821;BME280;11073;48.586;12.066;2023-02-23T04:55:54;96069.34;;;7.45;68.79
21821;BME280;11073;48.586;12.066;2023-02-23T04:58:43;96071.38;;;7.50;68.96
21821;BME280;11073;48.586;12.066;2023-02-23T05:01:32;96071.06;;;7.58;68.95
21821;BME280;11073;48.586;12.066;2023-02-23T05:04:24;96072.47;;;7.61;68.97
21821;BME280;11073;48.586;12.066;2023-02-23T05:07:14;96072.47;;;7.61;68.94
21821;BME280;11073;48.586;12.066;2023-02-23T05:10:04;96074.94;;;7.62;69.02
21821;BME280;11073;48.586;12.066;2023-02-23T05:12:53;96067.78;;;7.56;68.91
21821;BME280;11073;48.586;12.066;2023-02-23T05:15:43;96072.09;;;7.57;68.93
21821;BME280;11073;48.586;12.066;2023-02-23T05:18:32;96069.25;;;7.52;68.82
21821;BME280;11073;48.586;12.066;2023-02-23T05:21:22;96077.72;;;7.56;68.86
21821;BME280;11073;48.586;12.066;2023-02-23T05:24:13;96070.47;;;7.56;69.03
21821;BME280;11073;48.586;12.066;2023-02-23T05:27:02;96070.22;;;7.58;69.00
21821;BME280;11073;48.586;12.066;2023-02-23T05:29:52;96058.88;;;7.56;68.99
21821;BME280;11073;48.586;12.066;2023-02-23T05:32:41;96069.56;;;7.62;69.00
21821;BME280;11073;48.586;12.066;2023-02-23T05:35:31;96071.44;;;7.62;68.96
21821;BME280;11073;48.586;12.066;2023-02-23T05:38:21;96084.09;;;7.61;68.98
21821;BME280;11073;48.586;12.066;2023-02-23T05:41:13;96079.94;;;7.59;68.97
21821;BME280;11073;48.586;12.066;2023-02-23T05:44:02;96079.69;;;7.49;69.06
21821;BME280;11073;48.586;12.066;2023-02-23T05:46:50;96085.16;;;7.42;69.06
21821;BME280;11073;48.586;12.066;2023-02-23T05:49:40;96085.84;;;7.37;69.16
21821;BME280;11073;48.586;12.066;2023-02-23T05:52:29;96083.13;;;7.37;69.30
21821;BME280;11073;48.586;12.066;2023-02-23T05:55:19;96088.91;;;7.41;69.38
21821;BME280;11073;48.586;12.066;2023-02-23T05:58:09;96078.13;;;7.41;69.35
21821;BME280;11073;48.586;12.066;2023-02-23T06:00:59;96078.47;;;7.44;69.38
21821;BME280;11073;48.586;12.066;2023-02-23T06:03:49;96087.53;;;7.50;69.52
21821;BME280;11073;48.586;12.066;2023-02-23T06:06:38;96080.44;;;7.56;69.57
21821;BME280;11073;48.586;12.066;2023-02-23T06:09:27;96088.03;;;7.59;69.47
21821;BME280;11073;48.586;12.066;2023-02-23T06:12:16;96085.09;;;7.60;69.50
21821;BME280;11073;48.586;12.066;2023-02-23T06:15:08;96092.75;;;7.63;69.46
21821;BME280;11073;48.586;12.066;2023-02-23T06:17:57;96089.81;;;7.65;69.40
21821;BME280;11073;48.586;12.066;2023-02-23T06:20:47;96089.09;;;7.58;69.20
21821;BME280;11073;48.586;12.066;2023-02-23T06:23:37;96092.56;;;7.46;69.26
21821;BME280;11073;48.586;12.066;2023-02-23T06:26:26;96077.44;;;7.45;69.17
21821;BME280;11073;48.586;12.066;2023-02-23T06:29:15;96098.47;;;7.55;69.06
21821;BME280;11073;48.586;12.066;2023-02-23T06:32:06;96095.38;;;7.52;69.14
21821;BME280;11073;48.586;12.066;2023-02-23T06:34:55;96108.19;;;7.56;69.20
21821;BME280;11073;48.586;12.066;2023-02-23T06:37:44;96104.09;;;7.54;69.17
21821;BME280;11073;48.586;12.066;2023-02-23T06:40:34;96120.13;;;7.60;69.11
21821;BME280;11073;48.586;12.066;2023-02-23T06:43:24;96114.53;;;7.62;69.05
21821;BME280;11073;48.586;12.066;2023-02-23T06:46:14;96122.22;;;7.58;69.16
21821;BME280;11073;48.586;12.066;2023-02-23T06:49:04;96117.44;;;7.60;69.12
21821;BME280;11073;48.586;12.066;2023-02-23T06:51:54;96122.53;;;7.68;69.32
21821;BME280;11073;48.586;12.066;2023-02-23T06:54:43;96115.63;;;7.72;69.22
21821;BME280;11073;48.586;12.066;2023-02-23T06:57:32;96117.06;;;7.75;69.23
21821;BME280;11073;48.586;12.066;2023-02-23T07:00:23;96121.75;;;7.80;69.25
21821;BME280;11073;48.586;12.066;2023-02-23T07:03:12;96125.03;;;7.82;69.28
21821;BME280;11073;48.586;12.066;2023-02-23T07:06:02;96126.91;;;7.81;68.90
21821;BME280;11073;48.586;12.066;2023-02-23T07:08:56;96131.94;;;7.78;69.02
21821;BME280;11073;48.586;12.066;2023-02-23T07:11:45;96128.19;;;7.79;69.04
21821;BME280;11073;48.586;12.066;2023-02-23T07:14:36;96132.44;;;7.86;69.27
21821;BME280;11073;48.586;12.066;2023-02-23T07:17:25;96134.38;;;7.97;69.39
21821;BME280;11073;48.586;12.066;2023-02-23T07:20:15;96133.78;;;8.07;69.29
21821;BME280;11073;48.586;12.066;2023-02-23T07:23:05;96129.72;;;8.16;69.23
21821;BME280;11073;48.586;12.066;2023-02-23T07:25:54;96129.47;;;8.18;69.01
21821;BME280;11073;48.586;12.066;2023-02-23T07:28:44;96144.97;;;8.22;69.09
21821;BME280;11073;48.586;12.066;2023-02-23T07:31:33;96144.38;;;8.20;69.31
21821;BME280;11073;48.586;12.066;2023-02-23T07:34:22;96145.22;;;8.21;69.42
21821;BME280;11073;48.586;12.066;2023-02-23T07:37:11;96135.34;;;8.15;69.66
21821;BME280;11073;48.586;12.066;2023-02-23T07:40:02;96152.00;;;8.23;69.65
21821;BME280;11073;48.586;12.066;2023-02-23T07:42:51;96136.88;;;8.22;69.68
21821;BME280;11073;48.586;12.066;2023-02-23T07:45:41;96151.84;;;8.37;70.04
21821;BME280;11073;48.586;12.066;2023-02-23T07:48:33;96148.00;;;8.56;69.96
21821;BME280;11073;48.586;12.066;2023-02-23T07:51:21;96151.31;;;8.70;69.70
21821;BME280;11073;48.586;12.066;2023-02-23T07:54:10;96148.97;;;8.73;69.56
21821;BME280;11073;48.586;12.066;2023-02-23T07:57:01;96148.72;;;8.87;69.58
21821;BME280;11073;48.586;12.066;2023-02-23T07:59:50;96152.72;;;8.96;69.45
21821;BME280;11073;48.586;12.066;2023-02-23T08:02:40;96145.69;;;9.06;69.42
21821;BME280;11073;48.586;12.066;2023-02-23T08:05:29;96146.25;;;9.20;69.32
21821;BME280;11073;48.586;12.066;2023-02-23T08:08:19;96155.16;;;9.32;69.07
21821;BME280;11073;48.586;12.066;2023-02-23T08:11:08;96153.75;;;9.42;68.75
21821;BME280;11073;48.586;12.066;2023-02-23T08:13:58;96151.50;;;9.50;68.69
21821;BME280;11073;48.586;12.066;2023-02-23T08:16:47;96160.03;;;9.59;68.81
21821;BME280;11073;48.586;12.066;2023-02-23T08:19:38;96159.34;;;9.63;68.60
21821;BME280;11073;48.586;12.066;2023-02-23T08:22:27;96159.66;;;9.67;68.40
21821;BME280;11073;48.586;12.066;2023-02-23T08:25:31;96158.72;;;9.73;68.34
21821;BME280;11073;48.586;12.066;2023-02-23T08:28:19;96151.53;;;9.79;68.32
21821;BME280;11073;48.586;12.066;2023-02-23T08:31:10;96121.38;;;9.58;68.32
21821;BME280;11073;48.586;12.066;2023-02-23T08:34:00;96160.78;;;9.83;68.30
21821;BME280;11073;48.586;12.066;2023-02-23T08:36:49;96163.97;;;9.80;68.64
21821;BME280;11073;48.586;12.066;2023-02-23T08:39:40;96159.97;;;9.82;68.64
21821;BME280;11073;48.586;12.066;2023-02-23T08:42:30;96157.25;;;9.82;68.43
21821;BME280;11073;48.586;12.066;2023-02-23T08:45:20;96159.00;;;9.88;68.52
21821;BME280;11073;48.586;12.066;2023-02-23T08:48:10;96161.22;;;9.91;68.47
21821;BME280;11073;48.586;12.066;2023-02-23T08:50:59;96159.34;;;9.92;68.57
21821;BME280;11073;48.586;12.066;2023-02-23T08:53:49;96162.97;;;9.98;68.17
21821;BME280;11073;48.586;12.066;2023-02-23T08:56:38;96151.19;;;10.04;68.46
21821;BME280;11073;48.586;12.066;2023-02-23T08:59:27;96163.75;;;10.10;68.10
21821;BME280;11073;48.586;12.066;2023-02-23T09:02:16;96154.91;;;10.14;68.41
21821;BME280;11073;48.586;12.066;2023-02-23T09:05:08;96158.19;;;10.16;67.99
21821;BME280;11073;48.586;12.066;2023-02-23T09:07:59;96153.34;;;10.18;68.09
21821;BME280;11073;48.586;12.066;2023-02-23T09:10:49;96162.03;;;10.20;68.10
21821;BME280;11073;48.586;12.066;2023-02-23T09:13:38;96157.44;;;10.21;67.86
21821;BME280;11073;48.586;12.066;2023-02-23T09:16:27;96135.63;;;10.11;67.55
21821;BME280;11073;48.586;12.066;2023-02-23T09:19:16;96163.19;;;10.36;67.41
21821;BME280;11073;48.586;12.066;2023-02-23T09:22:06;96158.66;;;10.42;67.29
21821;BME280;11073;48.586;12.066;2023-02-23T09:24:55;96167.38;;;10.61;67.50
21821;BME280;11073;48.586;12.066;2023-02-23T09:27:44;96168.13;;;10.90;67.01
21821;BME280;11073;48.586;12.066;2023-02-23T09:30:34;96163.78;;;10.89;66.82
21821;BME280;11073;48.586;12.066;2023-02-23T09:33:23;96170.75;;;11.01;66.34
21821;BME280;11073;48.586;12.066;2023-02-23T09:36:15;96164.69;;;10.94;66.24
21821;BME280;11073;48.586;12.066;2023-02-23T09:39:06;96176.09;;;10.96;66.08
21821;BME280;11073;48.586;12.066;2023-02-23T09:42:03;96180.66;;;11.13;66.83
21821;BME280;11073;48.586;12.066;2023-02-23T09:45:10;96178.03;;;11.56;67.72
21821;BME280;11073;48.586;12.066;2023-02-23T09:48:08;96174.59;;;11.83;66.76
21821;BME280;11073;48.586;12.066;2023-02-23T09:50:58;96184.91;;;12.30;67.39
21821;BME280;11073;48.586;12.066;2023-02-23T09:53:51;96184.63;;;12.85;67.72
21821;BME280;11073;48.586;12.066;2023-02-23T09:56:45;96177.31;;;12.59;65.78
21821;BME280;11073;48.586;12.066;2023-02-23T09:59:35;96181.44;;;12.34;64.82
21821;BME280;11073;48.586;12.066;2023-02-23T10:02:26;96183.66;;;12.15;64.67
21821;BME280;11073;48.586;12.066;2023-02-23T10:05:22;96190.25;;;11.98;64.70
21821;BME280;11073;48.586;12.066;2023-02-23T10:08:21;96187.72;;;11.91;64.18
21821;BME280;11073;48.586;12.066;2023-02-23T10:11:21;96188.72;;;11.85;63.97
21821;BME280;11073;48.586;12.066;2023-02-23T10:14:20;96185.47;;;11.83;63.98
21821;BME280;11073;48.586;12.066;2023-02-23T10:17:21;96188.06;;;11.78;63.73
21821;BME280;11073;48.586;12.066;2023-02-23T10:20:20;96189.47;;;11.80;63.87
21821;BME280;11073;48.586;12.066;2023-02-23T10:23:14;96177.16;;;11.73;63.94
21821;BME280;11073;48.586;12.066;2023-02-23T10:26:06;96182.09;;;11.76;63.95
21821;BME280;11073;48.586;12.066;2023-02-23T10:29:00;96189.88;;;11.72;63.81
21821;BME280;11073;48.586;12.066;2023-02-23T10:31:53;96186.34;;;11.72;63.64
21821;BME280;11073;48.586;12.066;2023-02-23T10:34:45;96191.56;;;11.73;63.65
21821;BME280;11073;48.586;12.066;2023-02-23T10:37:37;96191.56;;;11.73;63.68
21821;BME280;11073;48.586;12.066;2023-02-23T10:40:29;96184.72;;;11.71;63.76
21821;BME280;11073;48.586;12.066;2023-02-23T10:43:20;96183.66;;;11.72;63.52
21821;BME280;11073;48.586;12.066;2023-02-23T10:46:16;96183.81;;;11.65;63.62
21821;BME280;11073;48.586;12.066;2023-02-23T10:49:15;96188.25;;;11.71;63.66
21821;BME280;11073;48.586;12.066;2023-02-23T10:52:09;96188.00;;;11.73;63.80
21821;BME280;11073;48.586;12.066;2023-02-23T10:55:04;96189.88;;;11.72;63.44
21821;BME280;11073;48.586;12.066;2023-02-23T10:58:02;96191.84;;;11.77;63.86
21821;BME280;11073;48.586;12.066;2023-02-23T11:00:53;96183.47;;;11.78;63.84
21821;BME280;11073;48.586;12.066;2023-02-23T11:03:44;96179.94;;;11.78;63.64
21821;BME280;11073;48.586;12.066;2023-02-23T11:06:49;96188.63;;;11.80;63.49
21821;BME280;11073;48.586;12.066;2023-02-23T11:09:39;96187.63;;;11.81;63.47
21821;BME280;11073;48.586;12.066;2023-02-23T11:12:36;96170.69;;;11.74;63.46
21821;BME280;11073;48.586;12.066;2023-02-23T11:15:30;96172.34;;;11.80;63.76
21821;BME280;11073;48.586;12.066;2023-02-23T11:18:38;96178.44;;;11.87;63.38
21821;BME280;11073;48.586;12.066;2023-02-23T11:21:30;96168.19;;;11.89;63.39
21821;BME280;11073;48.586;12.066;2023-02-23T11:24:25;96162.41;;;11.85;63.61
21821;BME280;11073;48.586;12.066;2023-02-23T11:27:20;96160.53;;;11.86;63.54
21821;BME280;11073;48.586;12.066;2023-02-23T11:30:12;96162.75;;;11.89;63.38
21821;BME280;11073;48.586;12.066;2023-02-23T11:33:04;96162.50;;;11.91;63.27
21821;BME280;11073;48.586;12.066;2023-02-23T11:35:59;96145.69;;;11.94;63.62
21821;BME280;11073;48.586;12.066;2023-02-23T11:38:59;96132.66;;;11.91;63.26
21821;BME280;11073;48.586;12.066;2023-02-23T11:42:12;96143.94;;;12.04;63.23
21821;BME280;11073;48.586;12.066;2023-02-23T11:45:05;96139.06;;;12.06;63.49
21821;BME280;11073;48.586;12.066;2023-02-23T11:47:56;96147.00;;;12.13;63.38
21821;BME280;11073;48.586;12.066;2023-02-23T11:50:48;96141.88;;;12.17;63.18
21821;BME280;11073;48.586;12.066;2023-02-23T11:53:39;96124.47;;;12.12;63.12
21821;BME280;11073;48.586;12.066;2023-02-23T11:56:29;96130.25;;;12.21;63.10
21821;BME280;11073;48.586;12.066;2023-02-23T11:59:26;96129.72;;;12.19;62.97
21821;BME280;11073;48.586;12.066;2023-02-23T12:02:21;96135.75;;;12.26;63.09
21821;BME280;11073;48.586;12.066;2023-02-23T12:05:17;96124.34;;;12.24;62.82
21821;BME280;11073;48.586;12.066;2023-02-23T12:08:13;96130.13;;;12.33;62.85
21821;BME280;11073;48.586;12.066;2023-02-23T12:11:10;96127.13;;;12.34;62.76
21821;BME280;11073;48.586;12.066;2023-02-23T12:14:03;96124.94;;;12.31;62.87
21821;BME280;11073;48.586;12.066;2023-02-23T12:17:01;96126.59;;;12.32;62.70
21821;BME280;11073;48.586;12.066;2023-02-23T12:19:55;96116.50;;;12.28;62.87
21821;BME280;11073;48.586;12.066;2023-02-23T12:22:50;96133.59;;;12.28;62.93
21821;BME280;11073;48.586;12.066;2023-02-23T12:25:45;96130.38;;;12.31;62.92
21821;BME280;11073;48.586;12.066;2023-02-23T12:28:41;96127.97;;;12.35;62.90
21821;BME280;11073;48.586;12.066;2023-02-23T12:31:36;96125.25;;;12.35;62.61
21821;BME280;11073;48.586;12.066;2023-02-23T12:34:35;96127.13;;;12.34;62.48
21821;BME280;11073;48.586;12.066;2023-02-23T12:37:33;96122.84;;;12.38;62.58
21821;BME280;11073;48.586;12.066;2023-02-23T12:40:27;96124.22;;;12.41;62.75
21821;BME280;11073;48.586;12.066;2023-02-23T12:43:23;96120.97;;;12.44;62.63
21821;BME280;11073;48.586;12.066;2023-02-23T12:46:17;96117.19;;;12.45;62.59
21821;BME280;11073;48.586;12.066;2023-02-23T12:49:14;96107.41;;;12.44;62.84
21821;BME280;11073;48.586;12.066;2023-02-23T12:52:11;96103.97;;;12.54;62.31
21821;BME280;11073;48.586;12.066;2023-02-23T12:55:01;96111.03;;;12.55;62.60
21821;BME280;11073;48.586;12.066;2023-02-23T12:57:55;96106.97;;;12.57;62.72
21821;BME280;11073;48.586;12.066;2023-02-23T13:00:51;96106.22;;;12.62;62.45
21821;BME280;11073;48.586;12.066;2023-02-23T13:03:59;96105.41;;;12.66;62.81
21821;BME280;11073;48.586;12.066;2023-02-23T13:06:56;96099.16;;;12.66;62.46
21821;BME280;11073;48.586;12.066;2023-02-23T13:09:58;96095.34;;;12.62;62.23
21821;BME280;11073;48.586;12.066;2023-02-23T13:12:55;96091.84;;;12.66;62.62
21821;BME280;11073;48.586;12.066;2023-02-23T13:15:57;96098.09;;;12.67;62.18
21821;BME280;11073;48.586;12.066;2023-02-23T13:18:50;96095.13;;;12.68;62.45
21821;BME280;11073;48.586;12.066;2023-02-23T13:21:46;96098.94;;;12.67;62.42
21821;BME280;11073;48.586;12.066;2023-02-23T13:24:38;96093.00;;;12.76;62.39
21821;BME280;11073;48.586;12.066;2023-02-23T13:27:34;96091.41;;;12.80;62.35
21821;BME280;11073;48.586;12.066;2023-02-23T13:30:25;96081.16;;;12.92;62.33
21821;BME280;11073;48.586;12.066;2023-02-23T13:33:25;96078.22;;;12.98;62.08
21821;BME280;11073;48.586;12.066;2023-02-23T13:36:31;96080.16;;;13.08;62.62
21821;BME280;11073;48.586;12.066;2023-02-23T13:39:39;96081.53;;;13.11;62.05
21821;BME280;11073;48.586;12.066;2023-02-23T13:42:44;96081.25;;;13.07;61.83
21821;BME280;11073;48.586;12.066;2023-02-23T13:45:42;96078.81;;;13.11;61.86
21821;BME280;11073;48.586;12.066;2023-02-23T13:48:44;96076.75;;;13.23;61.87
21821;BME280;11073;48.586;12.066;2023-02-23T13:51:47;96080.34;;;13.39;61.72
21821;BME280;11073;48.586;12.066;2023-02-23T13:54:51;96077.47;;;13.56;61.22
21821;BME280;11073;48.586;12.066;2023-02-23T13:57:44;96053.00;;;13.66;61.23
21821;BME280;11073;48.586;12.066;2023-02-23T14:00:33;96076.75;;;13.96;60.68
21821;BME280;11073;48.586;12.066;2023-02-23T14:03:25;96065.63;;;14.02;60.84
21821;BME280;11073;48.586;12.066;2023-02-23T14:06:18;96086.06;;;14.15;60.18
21821;BME280;11073;48.586;12.066;2023-02-23T14:09:16;96085.50;;;14.18;59.75
21821;BME280;11073;48.586;12.066;2023-02-23T14:12:13;96068.66;;;14.21;59.44
21821;BME280;11073;48.586;12.066;2023-02-23T14:15:40;96078.19;;;14.24;59.15
21821;BME280;11073;48.586;12.066;2023-02-23T14:18:31;96072.16;;;14.12;58.84
21821;BME280;11073;48.586;12.066;2023-02-23T14:21:29;96079.50;;;14.01;58.74
21821;BME280;11073;48.586;12.066;2023-02-23T14:24:22;96074.03;;;13.91;58.74
21821;BME280;11073;48.586;12.066;2023-02-23T14:27:19;96072.69;;;13.93;59.15
21821;BME280;11073;48.586;12.066;2023-02-23T14:30:29;96074.84;;;13.91;58.95
21821;BME280;11073;48.586;12.066;2023-02-23T14:33:37;96075.94;;;13.95;58.72
21821;BME280;11073;48.586;12.066;2023-02-23T14:36:41;96057.72;;;13.91;58.75
21821;BME280;11073;48.586;12.066;2023-02-23T14:39:32;96063.72;;;14.03;58.60
21821;BME280;11073;48.586;12.066;2023-02-23T14:42:25;96044.91;;;13.96;58.56
21821;BME280;11073;48.586;12.066;2023-02-23T14:45:18;96061.81;;;14.03;58.50
21821;BME280;11073;48.586;12.066;2023-02-23T14:48:11;96068.88;;;14.04;58.30
21821;BME280;11073;48.586;12.066;2023-02-23T14:51:11;96061.25;;;13.96;58.52
21821;BME280;11073;48.586;12.066;2023-02-23T14:54:09;96060.97;;;13.88;58.10
21821;BME280;11073;48.586;12.066;2023-02-23T14:57:04;96064.75;;;13.82;58.21
21821;BME280;11073;48.586;12.066;2023-02-23T14:59:57;96059.31;;;13.76;58.54
21821;BME280;11073;48.586;12.066;2023-02-23T15:02:56;96064.44;;;13.73;58.49
21821;BME280;11073;48.586;12.066;2023-02-23T15:05:50;96063.38;;;13.69;58.32
21821;BME280;11073;48.586;12.066;2023-02-23T15:08:43;96060.09;;;13.62;58.45
21821;BME280;11073;48.586;12.066;2023-02-23T15:11:33;96058.16;;;13.57;58.58
21821;BME280;11073;48.586;12.066;2023-02-23T15:14:23;96061.91;;;13.46;58.58
21821;BME280;11073;48.586;12.066;2023-02-23T15:17:17;96054.56;;;13.46;58.67
21821;BME280;11073;48.586;12.066;2023-02-23T15:20:13;96054.56;;;13.41;58.79
21821;BME280;11073;48.586;12.066;2023-02-23T15:23:06;96054.00;;;13.44;59.52